Terminal Aerodrome Forecast
Issued by NWS

Home | Current Version | Previous Version | Graphics & Text | Print | Product List | Glossary On
Versions: 1 2 3 4 5 6 7 8 9 10 11 12 13 14
000
FTUS43 KICT 160900 AAA
TAFHUT
TAF AMD
KHUT 160951Z 1610/1706 06005KT P6SM SCT030 BKN050
      TEMPO 1610/1613 BKN030
     FM161300 10006KT P6SM OVC025
     FM161500 16009KT P6SM OVC035=

USA.gov is the U.S. government's official web portal to all federal, state and local government web resources and services.